Terminal Aerodrome Forecast
Issued by NWS

Home | Current Version | Previous Version | Text Only | Print | Product List | Glossary On
Versions: 1 2 3 4 5 6 7 8 9 10 11 12 13
000
FTUS45 KABQ 271129
TAFGUP
TAF
KGUP 271129Z 2712/2812 VRB03KT P6SM BKN100
     FM271700 08008KT P6SM BKN080
     FM280100 VRB03KT P6SM BKN070
     FM280600 VRB03KT P6SM FEW070 SCT200=

USA.gov is the U.S. government's official web portal to all federal, state and local government web resources and services.